createdAt,value
2022-12-18T00:04:28.743Z,102657.66
2022-12-18T00:09:50.594Z,102649.56
2022-12-18T00:15:12.235Z,102638.50
2022-12-18T00:20:38.652Z,102637.69
2022-12-18T00:26:06.242Z,102633.63
2022-12-18T00:31:28.077Z,102624.66
2022-12-18T00:36:50.094Z,102617.59
2022-12-18T00:42:38.262Z,102613.09
2022-12-18T00:47:59.936Z,102604.56
2022-12-18T00:53:22.208Z,102607.75
2022-12-18T00:58:43.889Z,102603.88
2022-12-18T01:04:05.572Z,102603.44
2022-12-18T01:09:27.490Z,102619.38
2022-12-18T01:14:49.269Z,102624.03
2022-12-18T01:20:12.988Z,102624.63
2022-12-18T01:25:37.238Z,102622.06
2022-12-18T01:30:58.949Z,102614.53
2022-12-18T01:36:31.170Z,102609.19
2022-12-18T01:42:04.632Z,102605.50
2022-12-18T01:47:31.426Z,102616.38
2022-12-18T01:52:56.925Z,102621.00
2022-12-18T01:58:20.759Z,102626.50
2022-12-18T02:03:46.249Z,102620.03
2022-12-18T02:09:20.095Z,102627.03
2022-12-18T02:14:52.650Z,102617.84
2022-12-18T02:20:37.109Z,102613.97
2022-12-18T02:25:59.060Z,102603.66
2022-12-18T02:31:28.454Z,102587.47
2022-12-18T02:36:52.524Z,102570.59
2022-12-18T02:42:14.902Z,102563.97
2022-12-18T02:47:40.066Z,102574.59
2022-12-18T02:53:16.080Z,102557.06
2022-12-18T02:58:56.256Z,102550.22
2022-12-18T03:05:10.422Z,102553.59
2022-12-18T03:10:36.516Z,102575.25
2022-12-18T03:16:01.026Z,102568.44
2022-12-18T03:21:29.223Z,102557.75
2022-12-18T03:26:55.327Z,102553.28
2022-12-18T03:32:46.362Z,102541.75
2022-12-18T03:38:09.037Z,102533.41
2022-12-18T03:43:57.810Z,102526.50
2022-12-18T03:50:00.632Z,102532.44
2022-12-18T03:55:25.558Z,102541.34
2022-12-18T04:00:51.123Z,102549.84
2022-12-18T04:06:13.520Z,102552.16
2022-12-18T04:11:35.343Z,102546.81
2022-12-18T04:16:57.067Z,102558.28
2022-12-18T04:22:18.932Z,102555.69
2022-12-18T04:27:40.626Z,102540.38
2022-12-18T04:33:02.321Z,102529.03
2022-12-18T04:38:24.030Z,102532.22
2022-12-18T04:43:45.758Z,102520.47
2022-12-18T04:49:07.523Z,102519.81
2022-12-18T04:54:29.172Z,102520.03
2022-12-18T04:59:50.889Z,102540.63
2022-12-18T05:05:12.750Z,102541.03
2022-12-18T05:10:38.083Z,102537.59
2022-12-18T05:16:00.308Z,102535.22
2022-12-18T05:21:22.013Z,102544.56
2022-12-18T05:26:43.705Z,102536.66
2022-12-18T05:32:05.604Z,102524.09
2022-12-18T05:37:27.290Z,102528.09
2022-12-18T05:42:48.950Z,102517.44
2022-12-18T05:48:12.780Z,102529.53
2022-12-18T05:53:34.828Z,102519.75
2022-12-18T05:58:56.521Z,102525.44
2022-12-18T06:04:18.219Z,102533.09
2022-12-18T06:09:39.888Z,102535.19
2022-12-18T06:15:01.928Z,102527.09
2022-12-18T06:20:24.700Z,102529.38
2022-12-18T06:25:47.796Z,102524.91
2022-12-18T06:31:10.447Z,102519.75
2022-12-18T06:36:32.261Z,102519.75
2022-12-18T06:41:53.942Z,102514.00
2022-12-18T06:47:15.845Z,102507.75
2022-12-18T06:52:38.047Z,102498.28
2022-12-18T06:57:59.697Z,102479.75
2022-12-18T07:03:21.460Z,102469.84
2022-12-18T07:08:43.471Z,102469.13
2022-12-18T07:14:05.183Z,102460.72
2022-12-18T07:19:26.939Z,102461.59
2022-12-18T07:24:48.601Z,102443.03
2022-12-18T07:30:11.047Z,102436.44
2022-12-18T07:35:34.331Z,102438.63
2022-12-18T07:41:01.065Z,102426.91
2022-12-18T07:46:23.653Z,102426.03
2022-12-18T07:51:50.095Z,102430.28
2022-12-18T07:57:27.349Z,102437.34
2022-12-18T08:02:54.491Z,102422.78
2022-12-18T08:08:16.343Z,102426.19
2022-12-18T08:13:38.443Z,102412.31
2022-12-18T08:19:00.407Z,102422.16
2022-12-18T08:24:22.125Z,102430.09
2022-12-18T08:29:43.856Z,102399.78
2022-12-18T08:35:06.039Z,102408.22
2022-12-18T08:40:27.764Z,102403.16
2022-12-18T08:45:49.598Z,102401.03
2022-12-18T08:51:11.373Z,102388.88
2022-12-18T08:56:34.147Z,102401.09
2022-12-18T09:01:56.575Z,102383.97
2022-12-18T09:07:18.463Z,102376.91
2022-12-18T09:12:40.193Z,102380.06
2022-12-18T09:18:01.886Z,102372.75
2022-12-18T09:23:23.624Z,102369.72
2022-12-18T09:28:45.309Z,102371.97
2022-12-18T09:34:07.127Z,102372.75
2022-12-18T09:39:28.870Z,102370.91
2022-12-18T09:44:54.457Z,102364.63
2022-12-18T09:50:19.192Z,102357.97
2022-12-18T09:55:43.955Z,102364.34
2022-12-18T10:01:22.829Z,102354.25
2022-12-18T10:06:56.114Z,102355.25
2022-12-18T10:12:41.664Z,102353.25
2022-12-18T10:18:29.317Z,102339.59
2022-12-18T10:24:20.495Z,102332.78
2022-12-18T10:29:44.986Z,102323.00
2022-12-18T10:35:18.918Z,102303.00
2022-12-18T10:41:19.680Z,102289.66
2022-12-18T10:46:43.797Z,102286.53
2022-12-18T10:52:17.144Z,102279.75
2022-12-18T10:57:42.656Z,102269.50
2022-12-18T11:03:24.323Z,102274.72
2022-12-18T11:09:09.341Z,102273.50
2022-12-18T11:14:47.180Z,102271.69
2022-12-18T11:20:37.623Z,102278.97
2022-12-18T11:26:05.265Z,102260.44
2022-12-18T11:31:29.998Z,102266.53
2022-12-18T11:36:52.140Z,102261.88
2022-12-18T11:42:21.639Z,102251.44
2022-12-18T11:48:23.859Z,102254.91
2022-12-18T11:53:45.484Z,102249.16
2022-12-18T11:59:28.598Z,102249.19
2022-12-18T12:05:15.208Z,102236.16
2022-12-18T12:11:17.398Z,102223.19
2022-12-18T12:16:58.470Z,102198.88
2022-12-18T12:22:22.893Z,102209.53
2022-12-18T12:27:56.046Z,102208.28
2022-12-18T12:33:49.285Z,102203.16
2022-12-18T12:39:19.243Z,102194.63
2022-12-18T12:44:51.364Z,102186.75
2022-12-18T12:50:20.202Z,102182.69
2022-12-18T12:55:43.564Z,102190.38
2022-12-18T13:01:05.266Z,102182.28
2022-12-18T13:06:44.390Z,102175.88
2022-12-18T13:12:30.693Z,102170.56
2022-12-18T13:18:16.359Z,102159.69
2022-12-18T13:23:39.113Z,102155.22
2022-12-18T13:29:03.172Z,102130.28
2022-12-18T13:34:29.400Z,102125.16
2022-12-18T13:39:51.595Z,102126.00
2022-12-18T13:45:50.600Z,102124.72
2022-12-18T13:51:17.847Z,102130.06
2022-12-18T13:56:45.419Z,102123.44
2022-12-18T14:02:13.252Z,102125.34
2022-12-18T14:07:45.105Z,102134.31
2022-12-18T14:13:12.417Z,102137.53
2022-12-18T14:18:50.128Z,102116.63
2022-12-18T14:24:21.171Z,102132.19
2022-12-18T14:29:45.155Z,102131.34
2022-12-18T14:35:14.676Z,102136.66
2022-12-18T14:40:36.484Z,102133.06
2022-12-18T14:45:58.862Z,102111.72
2022-12-18T14:51:23.186Z,102112.38
2022-12-18T14:56:48.356Z,102107.47
2022-12-18T15:02:29.119Z,102098.72
2022-12-18T15:07:53.755Z,102097.19
2022-12-18T15:13:25.887Z,102088.47
2022-12-18T15:18:49.131Z,102092.28
2022-12-18T15:24:28.399Z,102068.00
2022-12-18T15:30:08.968Z,102074.81
2022-12-18T15:35:30.616Z,102053.69
2022-12-18T15:40:53.693Z,102054.31
2022-12-18T15:46:18.268Z,102056.88
2022-12-18T15:51:40.184Z,102058.59
2022-12-18T15:57:20.513Z,102051.50
2022-12-18T16:02:42.348Z,102049.59
2022-12-18T16:08:04.356Z,102033.59
2022-12-18T16:13:26.049Z,102033.78
2022-12-18T16:18:47.700Z,102032.50
2022-12-18T16:24:31.049Z,102028.81
2022-12-18T16:29:52.984Z,102025.22
2022-12-18T16:35:16.986Z,102016.44
2022-12-18T16:40:59.062Z,101999.59
2022-12-18T16:46:20.795Z,102012.38
2022-12-18T16:51:43.688Z,102013.00
2022-12-18T16:57:05.668Z,102009.16
2022-12-18T17:02:28.213Z,101998.91
2022-12-18T17:07:50.141Z,102000.63
2022-12-18T17:13:11.880Z,102006.59
2022-12-18T17:18:34.162Z,102004.75
2022-12-18T17:23:56.078Z,101992.81
2022-12-18T17:29:20.483Z,101979.22
2022-12-18T17:34:44.372Z,101975.22
2022-12-18T17:40:06.941Z,101984.19
2022-12-18T17:45:28.784Z,101978.59
2022-12-18T17:50:50.539Z,101981.31
2022-12-18T17:56:17.347Z,101988.28
2022-12-18T18:01:44.410Z,101988.19
2022-12-18T18:07:06.820Z,101984.28
2022-12-18T18:12:47.315Z,101983.22
2022-12-18T18:18:09.131Z,101985.97
2022-12-18T18:23:33.780Z,101984.91
2022-12-18T18:28:55.921Z,101982.16
2022-12-18T18:34:26.101Z,101991.84
2022-12-18T18:39:47.803Z,101996.22
2022-12-18T18:45:10.186Z,101996.88
2022-12-18T18:50:31.992Z,102001.44
2022-12-18T18:56:17.506Z,101985.44
2022-12-18T19:01:35.669Z,101980.78
2022-12-18T19:06:57.468Z,101982.13
2022-12-18T19:12:39.117Z,101988.31
2022-12-18T19:18:02.369Z,102000.53
2022-12-18T19:23:25.149Z,101992.59
2022-12-18T19:28:48.486Z,101993.19
2022-12-18T19:34:12.107Z,102001.88
2022-12-18T19:39:33.829Z,102001.75
2022-12-18T19:44:55.542Z,102000.44
2022-12-18T19:50:17.370Z,102003.50
2022-12-18T19:55:42.577Z,102006.09
2022-12-18T20:01:06.833Z,101992.97
2022-12-18T20:06:51.586Z,101993.28
2022-12-18T20:12:13.458Z,101977.78
2022-12-18T20:17:35.287Z,101972.25
2022-12-18T20:22:57.081Z,101967.72
2022-12-18T20:28:18.849Z,101948.84
2022-12-18T20:33:42.128Z,101949.00
2022-12-18T20:39:06.393Z,101946.34
2022-12-18T20:44:28.317Z,101947.09
2022-12-18T20:49:50.026Z,101945.50
2022-12-18T20:55:11.829Z,101946.00
2022-12-18T21:00:33.585Z,101943.44
2022-12-18T21:05:55.264Z,101921.81
2022-12-18T21:11:38.369Z,101911.50
2022-12-18T21:17:02.955Z,101899.03
2022-12-18T21:22:25.432Z,101886.69
2022-12-18T21:27:47.458Z,101879.00
2022-12-18T21:33:09.232Z,101880.50
2022-12-18T21:38:30.911Z,101880.25
2022-12-18T21:44:07.885Z,101866.28
2022-12-18T21:49:29.883Z,101847.63
2022-12-18T21:54:51.599Z,101837.56
2022-12-18T22:00:19.203Z,101831.72
2022-12-18T22:05:41.379Z,101818.22
2022-12-18T22:11:03.276Z,101815.34
2022-12-18T22:16:25.149Z,101801.00
2022-12-18T22:21:49.117Z,101800.31
2022-12-18T22:27:10.828Z,101794.69
2022-12-18T22:32:36.259Z,101773.25
2022-12-18T22:38:01.470Z,101775.69
2022-12-18T22:43:23.126Z,101778.97
2022-12-18T22:48:45.225Z,101775.41
2022-12-18T22:54:07.004Z,101775.47
2022-12-18T22:59:28.708Z,101767.47
2022-12-18T23:04:50.425Z,101745.09
2022-12-18T23:10:12.119Z,101732.38
2022-12-18T23:15:33.798Z,101720.28
2022-12-18T23:20:55.463Z,101721.19
2022-12-18T23:26:21.283Z,101717.19
2022-12-18T23:31:43.068Z,101730.84
2022-12-18T23:37:04.867Z,101727.47
2022-12-18T23:42:26.524Z,101698.53
2022-12-18T23:47:51.002Z,101665.94
2022-12-18T23:53:13.086Z,101667.44
2022-12-18T23:58:36.434Z,101659.19
